Time;durP1;ratioP1;P1;durP2;ratioP2;P2;SDS_P1;SDS_P2;PMS_P1;PMS_P2;Temp;Humidity;BMP_temperature;BMP_pressure;BME280_temperature;BME280_humidity;BME280_pressure;Samples;Min_cycle;Max_cycle;Signal;HPM_P1;HPM_P2
2022/05/18 00:00:08;;;;;;;9.17;8.27;;;;;;;-143.84;60.67;45007.19;5110942;28;20482;-78
2022/05/18 00:02:35;;;;;;;9.30;8.30;;;;;;;-143.84;60.68;45026.22;5110578;28;20508;-78
2022/05/18 00:05:03;;;;;;;10.43;9.40;;;;;;;-143.84;60.21;45005.28;5111388;28;20482;-78
2022/05/18 00:07:30;;;;;;;10.87;8.00;;;;;;;-143.84;60.36;45007.19;5111028;28;20567;-78
2022/05/18 00:09:57;;;;;;;9.20;8.40;;;;;;;-143.84;60.16;45037.66;5111323;28;20503;-78
2022/05/18 00:12:26;;;;;;;11.17;8.67;;;;;;;-143.84;60.05;44997.66;5110873;28;20819;-78
2022/05/18 00:14:54;;;;;;;9.23;8.33;;;;;;;-143.84;60.24;45010.97;5111331;28;20443;-78
2022/05/18 00:17:22;;;;;;;9.40;8.60;;;;;;;-143.84;60.55;45018.59;5111476;28;20431;-78
2022/05/18 00:19:49;;;;;;;12.37;8.63;;;;;;;-143.84;60.75;45035.75;5110623;28;20488;-78
2022/05/18 00:22:16;;;;;;;9.80;8.80;;;;;;;-143.84;60.89;45010.97;5110961;28;20428;-78
2022/05/18 00:24:43;;;;;;;9.00;8.20;;;;;;;-143.84;61.50;45001.47;5110186;28;20459;-78
2022/05/18 00:27:11;;;;;;;12.83;9.50;;;;;;;-143.84;61.90;45033.84;5110568;28;20434;-78
2022/05/18 00:29:39;;;;;;;12.83;8.47;;;;;;;-143.84;61.98;45020.50;5110755;28;20434;-77
2022/05/18 00:32:07;;;;;;;10.13;9.10;;;;;;;-143.84;62.16;45020.50;5110656;28;20507;-78
2022/05/18 00:34:34;;;;;;;10.17;9.17;;;;;;;-143.84;62.17;45022.41;5111067;28;20784;-78
2022/05/18 00:37:01;;;;;;;11.10;9.23;;;;;;;-143.84;62.74;45033.84;5111566;28;20438;-78
2022/05/18 00:39:28;;;;;;;10.57;9.50;;;;;;;-143.84;62.77;45016.69;5111285;28;20427;-79
2022/05/18 00:41:55;;;;;;;11.90;10.67;;;;;;;-143.84;63.31;45003.38;5111350;28;20439;-78
2022/05/18 00:44:23;;;;;;;12.00;10.93;;;;;;;-143.84;63.08;45005.28;5110812;28;20443;-78
2022/05/18 00:46:51;;;;;;;11.83;9.50;;;;;;;-143.84;62.43;45031.94;5111440;28;20423;-78
2022/05/18 00:49:18;;;;;;;13.33;10.50;;;;;;;-143.84;61.94;45014.78;5110252;28;20434;-74
2022/05/18 00:51:50;;;;;;;12.17;9.90;;;;;;;-143.84;61.41;45022.41;5108370;28;21023;-74
2022/05/18 00:54:22;;;;;;;13.83;8.97;;;;;;;-143.84;61.97;45001.47;5109078;28;20439;-74
2022/05/18 00:56:55;;;;;;;19.60;8.40;;;;;;;-143.84;62.84;45035.75;5109134;28;20441;-74
2022/05/18 00:59:25;;;;;;;19.17;7.93;;;;;;;-143.84;64.14;45037.66;5109506;28;20848;-74
2022/05/18 01:01:55;;;;;;;11.40;8.53;;;;;;;-143.84;64.56;45030.03;5108949;28;20577;-74
2022/05/18 01:04:25;;;;;;;22.93;8.47;;;;;;;-143.84;65.47;45041.44;5108817;28;20454;-74
2022/05/18 01:06:59;;;;;;;11.90;8.23;;;;;;;-143.84;66.25;45033.84;5109366;28;20503;-74
2022/05/18 01:09:31;;;;;;;12.90;8.60;;;;;;;-143.84;67.01;45016.69;5109150;28;20455;-74
2022/05/18 01:11:58;;;;;;;18.73;7.40;;;;;;;-143.84;68.15;45014.78;5109152;28;21096;-74
2022/05/18 01:14:28;;;;;;;8.93;7.03;;;;;;;-143.84;68.80;45041.44;5109072;28;20439;-74
2022/05/18 01:16:57;;;;;;;12.80;7.80;;;;;;;-143.84;69.38;45047.16;5109020;28;20571;-74
2022/05/18 01:19:35;;;;;;;11.30;7.50;;;;;;;-143.84;70.06;45047.16;5109282;28;20443;-74
2022/05/18 01:22:09;;;;;;;9.77;6.97;;;;;;;-143.84;70.60;45024.31;5109117;28;21423;-74
2022/05/18 01:24:43;;;;;;;12.37;7.60;;;;;;;-143.84;70.88;45033.84;5108991;28;20442;-74
2022/05/18 01:27:11;;;;;;;8.00;7.20;;;;;;;-143.84;70.94;45037.66;5108883;28;20941;-74
2022/05/18 01:29:39;;;;;;;11.87;7.43;;;;;;;-143.84;71.31;45039.53;5109215;28;20511;-74
2022/05/18 01:32:07;;;;;;;12.50;8.33;;;;;;;-143.84;71.62;45039.53;5108748;28;20435;-74
2022/05/18 01:34:41;;;;;;;11.20;8.00;;;;;;;-143.84;72.20;45018.59;5110038;28;20453;-74
2022/05/18 01:37:09;;;;;;;14.60;7.20;;;;;;;-143.84;72.93;45007.19;5112953;27;20924;-73
2022/05/18 01:39:42;;;;;;;12.07;7.00;;;;;;;-143.84;73.09;45041.44;5113659;28;20904;-72
2022/05/18 01:42:18;;;;;;;7.60;6.40;;;;;;;-143.84;73.42;45050.97;5114096;28;20473;-72
2022/05/18 01:44:45;;;;;;;7.67;6.00;;;;;;;-143.84;73.05;45033.84;5113458;28;20449;-73
2022/05/18 01:47:12;;;;;;;14.00;6.90;;;;;;;-143.84;72.99;45066.22;5112775;28;20449;-73
2022/05/18 01:49:43;;;;;;;19.97;6.87;;;;;;;-143.84;73.09;45052.88;5113467;28;20423;-73
2022/05/18 01:52:11;;;;;;;8.37;6.83;;;;;;;-143.84;73.18;45043.34;5113149;28;20435;-72
2022/05/18 01:54:41;;;;;;;8.53;5.83;;;;;;;-143.84;73.11;45043.34;5113659;28;20431;-73
2022/05/18 01:57:08;;;;;;;14.60;6.20;;;;;;;-143.84;73.47;45039.53;5113631;28;20439;-73
2022/05/18 01:59:37;;;;;;;9.03;6.23;;;;;;;-143.84;73.68;45039.53;5113528;28;20446;-73
2022/05/18 02:02:06;;;;;;;14.87;7.17;;;;;;;-143.84;73.88;45050.97;5112885;28;20482;-73
2022/05/18 02:04:33;;;;;;;8.53;6.20;;;;;;;-143.84;73.69;45037.66;5110871;28;20447;-72
2022/05/18 02:07:01;;;;;;;15.50;6.77;;;;;;;-143.84;73.96;45090.97;5110354;28;20479;-72
2022/05/18 02:09:29;;;;;;;13.13;7.40;;;;;;;-143.84;78.14;45066.22;5112755;28;20435;-72
2022/05/18 02:11:57;;;;;;;13.27;7.87;;;;;;;-143.84;81.17;45009.09;5112595;28;20420;-72
2022/05/18 02:14:26;;;;;;;14.83;7.47;;;;;;;-143.84;83.46;45037.66;5111273;28;20439;-72
2022/05/18 02:16:55;;;;;;;9.50;7.33;;;;;;;-143.84;84.96;45001.47;5112801;28;20450;-73
2022/05/18 02:19:22;;;;;;;14.20;8.20;;;;;;;-143.84;86.48;44974.81;5113293;28;20927;-73
2022/05/18 02:21:50;;;;;;;9.27;8.17;;;;;;;-143.84;87.48;44959.56;5113059;28;20442;-73
2022/05/18 02:24:17;;;;;;;13.00;8.33;;;;;;;-143.84;88.24;44946.25;5113400;28;20511;-73
2022/05/18 02:26:45;;;;;;;13.67;7.63;;;;;;;-143.84;88.63;44931.00;5112723;28;20805;-73
2022/05/18 02:29:12;;;;;;;8.47;7.30;;;;;;;-143.84;89.31;44904.34;5112940;28;20448;-73
2022/05/18 02:31:39;;;;;;;8.00;7.20;;;;;;;-143.84;89.24;44908.16;5112530;28;20500;-73
2022/05/18 02:34:07;;;;;;;9.40;8.20;;;;;;;-143.84;89.90;44883.41;5112236;28;20899;-73
2022/05/18 02:36:35;;;;;;;12.83;8.33;;;;;;;-143.84;90.39;44830.09;5112512;28;20779;-73
2022/05/18 02:39:02;;;;;;;11.53;7.60;;;;;;;-143.84;90.81;44797.72;5112351;28;20446;-73
2022/05/18 02:41:30;;;;;;;7.80;7.13;;;;;;;-143.84;91.31;44729.19;5112415;28;21263;-73
2022/05/18 02:43:57;;;;;;;12.70;7.13;;;;;;;-143.84;91.35;44708.25;5112107;27;20449;-73
2022/05/18 02:46:24;;;;;;;13.33;7.37;;;;;;;-143.84;91.81;44647.31;5110705;28;21026;-73
2022/05/18 02:48:52;;;;;;;9.00;7.40;;;;;;;-143.84;91.60;44647.31;5111412;28;20446;-73
2022/05/18 02:51:22;;;;;;;8.77;7.77;;;;;;;-143.84;91.63;44628.28;5112256;28;20524;-73
2022/05/18 02:53:50;;;;;;;8.40;7.50;;;;;;;-143.84;92.13;44594.00;5112458;28;20449;-73
2022/05/18 02:56:23;;;;;;;9.33;7.30;;;;;;;-143.84;92.47;44533.09;5112358;28;20446;-72
2022/05/18 02:58:52;;;;;;;10.87;8.20;;;;;;;-143.84;92.68;44502.63;5111989;28;20515;-73
2022/05/18 03:01:21;;;;;;;16.43;7.60;;;;;;;-143.84;92.84;44470.25;5112226;28;20455;-73
2022/05/18 03:03:48;;;;;;;7.60;6.90;;;;;;;-143.84;93.24;44380.78;5111999;28;21023;-72
2022/05/18 03:06:18;;;;;;;8.57;7.53;;;;;;;-143.84;93.55;44276.06;5112116;28;20507;-73
2022/05/18 03:08:48;;;;;;;10.10;8.10;;;;;;;-143.84;93.75;44249.41;5112437;28;20442;-73
2022/05/18 03:11:15;;;;;;;8.13;7.30;;;;;;;-143.84;93.95;44180.88;5112387;28;21120;-73
2022/05/18 03:13:43;;;;;;;10.00;7.50;;;;;;;-143.84;94.11;44087.59;5111550;28;20437;-73
2022/05/18 03:16:10;;;;;;;10.50;7.93;;;;;;;-143.84;94.08;44131.38;5110508;28;20442;-73
2022/05/18 03:18:37;;;;;;;10.33;7.60;;;;;;;-143.84;94.14;44108.53;5110027;28;20431;-73
2022/05/18 03:23:51;;;;;;;10.67;8.13;;;;;;;-143.84;94.62;44001.94;5111152;28;20949;-73
2022/05/18 03:26:20;;;;;;;13.80;8.70;;;;;;;-143.84;93.97;44169.47;5111205;28;21245;-73
2022/05/18 03:28:52;;;;;;;11.80;8.57;;;;;;;-143.84;94.85;44003.84;5112004;28;20436;-73
2022/05/18 03:31:20;;;;;;;9.07;7.60;;;;;;;-143.84;95.00;43958.16;5111283;28;20791;-73
2022/05/18 03:33:50;;;;;;;9.40;7.70;;;;;;;-143.84;94.88;43956.25;5110477;28;20489;-73
2022/05/18 03:36:19;;;;;;;11.33;8.70;;;;;;;-143.84;94.79;43979.09;5109682;28;20446;-73
2022/05/18 03:38:48;;;;;;;11.10;8.40;;;;;;;-143.84;94.57;44013.38;5110828;28;20826;-76
2022/05/18 03:41:18;;;;;;;16.60;8.67;;;;;;;-143.84;94.61;44032.41;5108963;28;20951;-74
2022/05/18 03:43:46;;;;;;;11.87;8.50;;;;;;;-143.84;94.39;44066.66;5110596;28;20431;-74
2022/05/18 03:46:15;;;;;;;11.83;7.93;;;;;;;-143.84;94.18;44097.13;5111032;28;20995;-76
2022/05/18 03:48:43;;;;;;;9.03;8.13;;;;;;;-143.84;94.06;44150.41;5111303;28;20439;-74
2022/05/18 03:51:16;;;;;;;9.23;8.33;;;;;;;-143.84;93.84;44186.59;5102817;28;20458;-74
2022/05/18 03:53:43;;;;;;;9.00;7.67;;;;;;;-143.84;93.62;44238.00;5090745;28;20462;-76
2022/05/18 03:56:11;;;;;;;14.60;8.03;;;;;;;-143.84;93.25;44308.44;5090622;28;20509;-72
2022/05/18 03:58:40;;;;;;;9.87;8.63;;;;;;;-143.84;92.83;44439.78;5089408;28;20432;-71
2022/05/18 04:01:09;;;;;;;11.17;7.67;;;;;;;-143.84;92.95;44415.03;5089870;28;20432;-72
2022/05/18 04:03:38;;;;;;;12.50;8.77;;;;;;;-143.84;92.56;44435.97;5090068;28;20476;-76
2022/05/18 04:06:07;;;;;;;8.80;7.40;;;;;;;-143.84;92.33;44533.09;5095003;28;20517;-75
2022/05/18 04:08:35;;;;;;;13.30;7.83;;;;;;;-143.84;92.01;44605.44;5099675;28;20432;-75
2022/05/18 04:11:02;;;;;;;11.30;8.13;;;;;;;-143.84;91.93;44576.88;5090952;28;20498;-74
2022/05/18 04:13:29;;;;;;;9.33;8.30;;;;;;;-143.84;91.35;44626.38;5090987;28;20448;-74
2022/05/18 04:15:58;;;;;;;9.83;7.17;;;;;;;-143.84;91.48;44649.22;5090905;28;20498;-74
2022/05/18 04:18:26;;;;;;;12.93;8.10;;;;;;;-143.84;91.41;44656.84;5090757;28;20435;-75
2022/05/18 04:20:55;;;;;;;8.30;7.47;;;;;;;-143.84;89.84;44774.88;5090764;28;21292;-74
2022/05/18 04:23:23;;;;;;;10.07;8.60;;;;;;;-143.84;90.60;44723.47;5091092;28;20493;-74
2022/05/18 04:25:50;;;;;;;13.80;8.50;;;;;;;-143.84;90.84;44734.91;5090669;28;20557;-74
2022/05/18 04:28:17;;;;;;;10.77;8.00;;;;;;;-143.84;89.84;44763.47;5090641;28;20421;-74
2022/05/18 04:30:46;;;;;;;8.63;7.77;;;;;;;-143.84;91.45;44683.50;5090831;28;20854;-74
2022/05/18 04:33:19;;;;;;;15.87;9.47;;;;;;;-143.84;91.77;44637.78;5090550;28;20435;-74
2022/05/18 04:35:48;;;;;;;9.90;9.00;;;;;;;-143.84;92.53;44594.00;5090578;28;21175;-74
2022/05/18 04:38:15;;;;;;;9.13;8.33;;;;;;;-143.84;90.29;44725.38;5090391;28;20490;-74
2022/05/18 04:40:43;;;;;;;9.20;8.40;;;;;;;-143.84;90.83;44713.94;5090576;28;20469;-74
2022/05/18 04:43:10;;;;;;;14.30;9.17;;;;;;;-143.84;89.07;44856.75;5090499;28;20508;-74
2022/05/18 04:45:39;;;;;;;15.23;9.93;;;;;;;-143.84;92.37;44603.53;5090145;28;20435;-74
2022/05/18 04:48:07;;;;;;;13.77;8.40;;;;;;;-143.84;93.36;44428.38;5090710;28;20451;-74
2022/05/18 04:50:35;;;;;;;9.07;8.10;;;;;;;-143.84;93.11;44472.16;5090446;28;20447;-74
2022/05/18 04:53:03;;;;;;;10.67;8.50;;;;;;;-143.84;93.09;44426.47;5090697;28;20927;-74
2022/05/18 04:55:30;;;;;;;14.63;8.60;;;;;;;-143.84;93.19;44428.38;5090124;28;20937;-75
2022/05/18 04:58:02;;;;;;;13.20;8.40;;;;;;;-143.84;93.14;44449.31;5089092;28;20455;-75
2022/05/18 05:00:29;;;;;;;9.00;8.10;;;;;;;-143.84;92.59;44515.94;5089090;28;20424;-75
2022/05/18 05:02:57;;;;;;;8.23;7.33;;;;;;;-143.84;92.18;44580.69;5090090;28;20479;-75
2022/05/18 05:05:26;;;;;;;15.80;8.10;;;;;;;-143.84;92.15;44603.53;5089994;28;20501;-73
2022/05/18 05:07:55;;;;;;;13.83;7.93;;;;;;;-143.84;92.35;44540.69;5090018;28;20479;-74
2022/05/18 05:10:23;;;;;;;8.27;7.53;;;;;;;-143.84;92.01;44603.53;5092487;28;20443;-75
2022/05/18 05:12:50;;;;;;;8.83;7.97;;;;;;;-143.84;91.81;44637.78;5093293;28;20432;-75
2022/05/18 05:15:17;;;;;;;10.50;8.03;;;;;;;-143.84;89.07;44839.63;5093316;28;20447;-75
2022/05/18 05:17:45;;;;;;;11.73;7.87;;;;;;;-143.84;88.10;44885.31;5092402;28;21145;-75
2022/05/18 05:20:13;;;;;;;10.90;7.93;;;;;;;-143.84;87.37;44911.97;5093019;28;20439;-75
2022/05/18 05:22:40;;;;;;;8.50;7.70;;;;;;;-143.84;89.89;44809.16;5093234;28;20467;-75
2022/05/18 05:25:10;;;;;;;6.10;5.57;;;;;;;-143.84;88.53;44889.13;5093082;28;20434;-74
2022/05/18 05:27:37;;;;;;;11.90;4.97;;;;;;;-143.84;87.99;44919.59;5093055;28;20482;-74
2022/05/18 05:30:06;;;;;;;8.90;4.50;;;;;;;-143.84;87.50;44959.56;5093134;28;20440;-75
2022/05/18 05:32:33;;;;;;;6.83;4.53;;;;;;;-143.84;87.28;44948.16;5092800;28;20466;-75
2022/05/18 05:35:01;;;;;;;5.80;4.60;;;;;;;-143.84;87.22;44961.47;5093051;28;20435;-75
2022/05/18 05:37:28;;;;;;;4.20;3.57;;;;;;;-143.84;84.77;45005.28;5093183;28;20443;-75
2022/05/18 05:39:56;;;;;;;3.53;3.23;;;;;;;-143.84;83.68;44995.75;5092713;28;20450;-75
2022/05/18 05:42:25;;;;;;;11.60;4.50;;;;;;;-143.84;83.65;44988.13;5092724;28;20497;-75
2022/05/18 05:44:52;;;;;;;9.10;4.07;;;;;;;-143.84;87.17;44980.53;5092997;28;20432;-75
2022/05/18 05:47:20;;;;;;;7.13;3.63;;;;;;;-143.84;88.15;44944.34;5092794;28;20509;-75
2022/05/18 05:49:47;;;;;;;3.50;3.20;;;;;;;-143.84;88.58;44927.19;5092674;28;20466;-75
2022/05/18 05:52:14;;;;;;;3.63;3.33;;;;;;;-143.84;89.01;44951.97;5092890;28;20453;-75
2022/05/18 05:54:43;;;;;;;7.43;2.80;;;;;;;-143.84;89.28;44942.44;5093101;28;20518;-75
2022/05/18 05:57:10;;;;;;;4.70;2.60;;;;;;;-143.84;89.70;44927.19;5092960;28;21018;-75
2022/05/18 05:59:39;;;;;;;4.50;2.70;;;;;;;-143.84;90.61;44923.41;5092696;28;20440;-75
2022/05/18 06:02:12;;;;;;;3.10;2.90;;;;;;;-143.84;90.52;44908.16;5092501;28;21155;-75
2022/05/18 06:04:40;;;;;;;8.30;2.43;;;;;;;-143.84;91.86;44860.56;5092674;28;20438;-75
2022/05/18 06:07:08;;;;;;;4.00;2.73;;;;;;;-143.84;92.55;44824.38;5092670;28;20511;-75
2022/05/18 06:09:35;;;;;;;4.17;2.87;;;;;;;-143.84;92.91;44792.00;5092687;28;20508;-75
2022/05/18 06:12:03;;;;;;;6.00;2.60;;;;;;;-143.84;92.53;44814.88;5092412;28;20443;-75
2022/05/18 06:14:30;;;;;;;4.10;2.80;;;;;;;-143.84;92.40;44805.34;5091758;28;20485;-74
2022/05/18 06:16:58;;;;;;;4.07;2.33;;;;;;;-143.84;92.19;44847.22;5092245;28;20451;-74
2022/05/18 06:19:25;;;;;;;3.00;2.67;;;;;;;-143.84;92.71;44797.72;5091390;28;20489;-74
2022/05/18 06:21:52;;;;;;;3.00;2.30;;;;;;;-143.84;93.07;44801.53;5089988;28;20506;-74
2022/05/18 06:24:20;;;;;;;6.63;2.60;;;;;;;-143.84;93.16;44793.91;5091936;28;20901;-74
2022/05/18 06:26:47;;;;;;;3.57;2.33;;;;;;;-143.84;92.33;44805.34;5090179;28;20479;-74
2022/05/18 06:29:14;;;;;;;4.97;2.60;;;;;;;-143.84;93.05;44740.59;5089959;28;20444;-74
2022/05/18 06:31:41;;;;;;;3.13;2.93;;;;;;;-143.84;93.37;44767.25;5090693;28;20446;-75
2022/05/18 06:34:10;;;;;;;5.60;2.07;;;;;;;-143.84;94.25;44624.47;5091623;28;20443;-75
2022/05/18 06:36:37;;;;;;;3.10;2.80;;;;;;;-143.84;94.42;44654.94;5091683;28;20933;-75
2022/05/18 06:39:05;;;;;;;4.40;1.97;;;;;;;-143.84;94.22;44666.34;5091872;28;20448;-75
2022/05/18 06:41:32;;;;;;;4.30;2.20;;;;;;;-143.84;93.11;44807.25;5091718;28;20448;-74
2022/05/18 06:44:02;;;;;;;4.27;2.30;;;;;;;-143.84;91.85;44870.09;5091858;28;20803;-74
2022/05/18 06:46:31;;;;;;;2.20;2.10;;;;;;;-143.84;92.20;44862.47;5091813;28;20476;-74
2022/05/18 06:48:59;;;;;;;2.00;1.80;;;;;;;-143.84;92.19;44868.19;5091366;28;20463;-74
2022/05/18 06:51:30;;;;;;;5.70;2.20;;;;;;;-143.84;91.77;44879.59;5091020;28;20448;-75
2022/05/18 06:53:58;;;;;;;2.77;2.13;;;;;;;-143.84;91.35;44915.78;5091354;28;20519;-74
2022/05/18 06:56:31;;;;;;;3.10;2.40;;;;;;;-143.84;91.42;44923.41;5091895;28;20455;-75
2022/05/18 06:58:59;;;;;;;2.63;2.43;;;;;;;-143.84;91.60;44902.44;5091305;28;20442;-74
2022/05/18 07:01:28;;;;;;;2.30;2.10;;;;;;;-143.84;92.12;44908.16;5090565;28;20454;-74
2022/05/18 07:03:55;;;;;;;3.03;2.00;;;;;;;-143.84;90.26;44946.25;5090592;28;20538;-74
2022/05/18 07:06:25;;;;;;;5.47;2.40;;;;;;;-143.84;90.04;44955.75;5090910;28;20810;-74
2022/05/18 07:08:55;;;;;;;3.70;2.40;;;;;;;-143.84;90.19;44940.53;5090463;28;20441;-74
2022/05/18 07:11:28;;;;;;;10.07;2.20;;;;;;;-143.84;90.61;44927.19;5090283;28;20454;-74
2022/05/18 07:13:58;;;;;;;2.67;2.47;;;;;;;-143.84;88.99;44986.22;5090287;28;20529;-74
2022/05/18 07:16:27;;;;;;;4.97;2.37;;;;;;;-143.84;90.30;44969.09;5090551;28;20446;-74
2022/05/18 07:18:55;;;;;;;3.37;2.57;;;;;;;-143.84;89.08;45012.88;5090721;28;20447;-74
2022/05/18 07:21:23;;;;;;;3.70;2.50;;;;;;;-143.84;90.38;44944.34;5091212;28;20432;-73
2022/05/18 07:23:50;;;;;;;3.30;2.80;;;;;;;-143.84;91.02;44929.09;5090982;28;20443;-72
2022/05/18 07:26:20;;;;;;;9.80;3.43;;;;;;;-143.84;91.01;44940.53;5090817;28;20454;-72
2022/05/18 07:28:48;;;;;;;12.87;3.23;;;;;;;-143.84;91.13;44946.25;5090590;28;20575;-72
2022/05/18 07:31:16;;;;;;;4.23;3.07;;;;;;;-143.84;90.04;44951.97;5090897;28;20438;-76
2022/05/18 07:33:43;;;;;;;4.47;2.60;;;;;;;-143.84;91.28;44938.63;5090818;28;20991;-77
2022/05/18 07:36:10;;;;;;;3.33;3.03;;;;;;;-143.84;90.98;44948.16;5091084;28;20435;-77
2022/05/18 07:38:39;;;;;;;6.13;3.20;;;;;;;-143.84;91.56;44913.88;5091328;28;20423;-77
2022/05/18 07:41:07;;;;;;;8.63;3.27;;;;;;;-143.84;91.67;44915.78;5091088;28;20546;-74
2022/05/18 07:43:36;;;;;;;6.13;2.70;;;;;;;-143.84;92.00;44900.53;5089957;28;20813;-74
2022/05/18 07:46:04;;;;;;;5.30;2.50;;;;;;;-143.84;91.72;44896.75;5090473;28;20451;-74
2022/05/18 07:48:32;;;;;;;2.90;2.57;;;;;;;-143.84;91.56;44932.91;5091004;28;20486;-74
2022/05/18 07:50:59;;;;;;;3.10;2.60;;;;;;;-143.84;91.38;44931.00;5091213;28;20439;-73
2022/05/18 07:53:27;;;;;;;7.77;2.60;;;;;;;-143.84;91.52;44929.09;5090873;28;20442;-74
2022/05/18 07:55:55;;;;;;;7.47;2.40;;;;;;;-143.84;91.48;44927.19;5091026;28;20445;-74
2022/05/18 07:58:24;;;;;;;3.43;2.43;;;;;;;-143.84;91.46;44951.97;5090955;28;20441;-73
2022/05/18 08:00:52;;;;;;;2.43;2.23;;;;;;;-143.84;91.00;44980.53;5098856;28;20489;-74
2022/05/18 08:03:19;;;;;;;9.73;2.50;;;;;;;-143.84;90.64;45001.47;5110810;28;20536;-74
2022/05/18 08:05:47;;;;;;;2.30;2.10;;;;;;;-143.84;90.49;45001.47;5111171;28;21126;-73
2022/05/18 08:08:18;;;;;;;5.23;2.47;;;;;;;-143.84;90.43;44963.38;5111105;28;20482;-74
2022/05/18 08:16:16;;;;;;;5.50;3.03;;;;;;;-143.84;90.52;45014.78;5111127;28;20410;-73
2022/05/18 08:18:44;;;;;;;5.10;2.40;;;;;;;-143.84;90.63;44999.56;5111193;28;20457;-74
2022/05/18 08:21:11;;;;;;;4.50;3.20;;;;;;;-143.84;90.36;45007.19;5111327;28;20445;-73
2022/05/18 08:23:39;;;;;;;3.67;2.17;;;;;;;-143.84;90.81;45009.09;5110988;28;20980;-74
2022/05/18 08:26:06;;;;;;;3.30;2.43;;;;;;;-143.84;91.01;44990.03;5111241;28;20443;-74
2022/05/18 08:28:33;;;;;;;8.13;2.97;;;;;;;-143.84;91.29;44951.97;5111570;28;20538;-74
2022/05/18 08:31:01;;;;;;;3.03;2.63;;;;;;;-143.84;92.39;44951.97;5111034;28;20875;-73
2022/05/18 08:33:31;;;;;;;3.10;2.60;;;;;;;-143.84;90.35;45007.19;5111021;28;20469;-73
2022/05/18 08:35:59;;;;;;;3.03;2.70;;;;;;;-143.84;90.58;44969.09;5110797;28;20505;-74
2022/05/18 08:38:27;;;;;;;7.67;2.80;;;;;;;-143.84;91.26;44982.41;5110955;28;20451;-73
2022/05/18 08:40:59;;;;;;;14.80;2.30;;;;;;;-143.84;91.40;44940.53;5111644;28;20445;-73
2022/05/18 08:43:28;;;;;;;3.10;2.70;;;;;;;-143.84;93.72;44835.81;5111555;28;20472;-73
2022/05/18 08:46:04;;;;;;;8.50;2.50;;;;;;;-143.84;95.42;44733.00;5115176;28;20827;-73
2022/05/18 08:48:44;;;;;;;11.43;2.70;;;;;;;-143.84;94.04;44761.56;5115471;28;20467;-73
2022/05/18 08:51:28;;;;;;;4.03;2.10;;;;;;;-143.84;92.97;44896.75;5115876;28;20502;-73
2022/05/18 08:54:08;;;;;;;4.83;2.20;;;;;;;-143.84;93.03;44892.94;5114571;28;20887;-73
2022/05/18 08:56:39;;;;;;;1.67;1.57;;;;;;;-143.84;93.19;44881.50;5115503;28;20434;-74
2022/05/18 08:59:13;;;;;;;2.20;1.90;;;;;;;-143.84;92.57;44913.88;5113828;28;20511;-75
2022/05/18 09:01:46;;;;;;;3.37;2.00;;;;;;;-143.84;91.01;44991.94;5113478;28;20504;-75
2022/05/18 09:04:18;;;;;;;2.40;2.00;;;;;;;-143.84;90.16;45047.16;5114227;28;20452;-75
2022/05/18 09:06:50;;;;;;;7.43;2.37;;;;;;;-143.84;89.00;45064.31;5115534;27;20433;-75
2022/05/18 09:12:12;;;;;;;8.10;2.50;;;;;;;-143.84;88.08;45077.63;5114627;28;20424;-74
2022/05/18 09:14:42;;;;;;;9.57;2.90;;;;;;;-143.84;88.44;45075.72;5115021;28;20456;-74
2022/05/18 09:17:20;;;;;;;4.30;2.17;;;;;;;-143.84;87.58;45068.13;5113627;28;20451;-74
2022/05/18 09:20:04;;;;;;;3.90;2.17;;;;;;;-143.84;87.50;45071.91;5114642;28;20492;-74
2022/05/18 09:22:47;;;;;;;12.20;3.00;;;;;;;-143.84;87.85;45033.84;5114958;28;20446;-74
2022/05/18 09:25:27;;;;;;;4.23;2.67;;;;;;;-143.84;87.11;45045.25;5114812;28;20447;-76
2022/05/18 09:28:19;;;;;;;6.80;2.40;;;;;;;-143.84;87.31;45060.50;5114074;28;20473;-73
2022/05/18 09:30:55;;;;;;;2.37;2.17;;;;;;;-143.84;87.51;45068.13;5099798;28;20907;-73
2022/05/18 09:33:39;;;;;;;3.80;2.53;;;;;;;-143.84;87.71;45073.81;5102301;28;20450;-74
2022/05/18 09:36:29;;;;;;;2.03;1.93;;;;;;;-143.84;86.27;45085.25;5110250;28;20451;-74
2022/05/18 09:39:03;;;;;;;2.63;2.40;;;;;;;-143.84;85.67;45098.56;5109186;28;20466;-74
2022/05/18 09:41:35;;;;;;;6.40;2.10;;;;;;;-143.84;83.49;45108.09;5102565;28;20443;-74
2022/05/18 09:44:10;;;;;;;14.67;2.70;;;;;;;-143.84;83.55;45104.28;5107505;28;20443;-73
2022/05/18 09:46:39;;;;;;;3.63;2.27;;;;;;;-143.84;84.58;45111.91;5106491;28;20443;-74
2022/05/18 09:49:13;;;;;;;2.90;2.70;;;;;;;-143.84;86.33;45070.00;5097678;28;20479;-74
2022/05/18 09:51:43;;;;;;;5.93;2.00;;;;;;;-143.84;86.73;45056.69;5106203;28;20439;-74
2022/05/18 09:54:10;;;;;;;2.73;2.53;;;;;;;-143.84;86.56;45075.72;5108304;28;20509;-74
2022/05/18 09:56:42;;;;;;;2.67;2.43;;;;;;;-143.84;85.31;45096.66;5109049;28;20467;-74
2022/05/18 09:59:14;;;;;;;1.80;1.70;;;;;;;-143.84;84.97;45096.66;5110123;28;20440;-74
2022/05/18 10:07:34;;;;;;;6.10;2.93;;;;;;;-143.84;87.00;45071.91;5104847;28;20930;-74
2022/05/18 10:10:09;;;;;;;7.10;3.00;;;;;;;-143.84;87.15;45054.78;5101631;28;20499;-74
2022/05/18 10:12:42;;;;;;;7.40;2.60;;;;;;;-143.84;88.00;45075.72;5099826;28;20454;-74
2022/05/18 10:15:21;;;;;;;2.90;2.60;;;;;;;-143.84;89.13;45064.31;5101068;28;20521;-74
2022/05/18 10:17:53;;;;;;;6.00;3.07;;;;;;;-143.84;89.35;45030.03;5104372;28;20849;-74
2022/05/18 10:20:25;;;;;;;4.87;3.10;;;;;;;-143.84;89.82;45064.31;5102193;28;20574;-74
2022/05/18 10:22:55;;;;;;;7.00;3.00;;;;;;;-143.84;89.70;45003.38;5102228;28;20819;-74
2022/05/18 10:25:30;;;;;;;13.23;3.63;;;;;;;-143.84;89.71;45045.25;5102377;28;21006;-73
2022/05/18 10:27:57;;;;;;;3.40;2.73;;;;;;;-143.84;89.91;45020.50;5098349;28;20486;-74
2022/05/18 10:30:29;;;;;;;3.87;2.73;;;;;;;-143.84;90.18;45030.03;5102280;28;20449;-74
2022/05/18 10:33:01;;;;;;;3.77;2.97;;;;;;;-143.84;89.95;44986.22;5101390;28;20551;-74
2022/05/18 10:35:49;;;;;;;9.67;3.77;;;;;;;-143.84;89.84;45035.75;5097882;28;20514;-74
2022/05/18 10:38:20;;;;;;;4.03;2.50;;;;;;;-143.84;89.67;45031.94;5104883;28;20492;-74
2022/05/18 10:40:48;;;;;;;5.77;2.50;;;;;;;-143.84;88.74;45033.84;5101757;28;20470;-74
2022/05/18 10:43:34;;;;;;;4.73;3.60;;;;;;;-143.84;86.85;45073.81;5109399;28;20453;-74
2022/05/18 10:46:04;;;;;;;5.23;2.50;;;;;;;-143.84;84.33;45108.09;5104507;28;20477;-74
2022/05/18 10:48:33;;;;;;;8.03;2.40;;;;;;;-143.84;82.71;45090.97;5105081;28;20488;-74
2022/05/18 10:51:07;;;;;;;3.60;2.07;;;;;;;-143.84;81.11;45127.13;5102372;28;20446;-74
2022/05/18 10:53:40;;;;;;;7.13;2.27;;;;;;;-143.84;78.67;45108.09;5109612;28;20440;-74
2022/05/18 10:56:10;;;;;;;5.60;3.73;;;;;;;-143.84;78.46;45129.03;5101935;28;20460;-74
2022/05/18 10:58:43;;;;;;;4.40;1.70;;;;;;;-143.84;77.93;45090.97;5101102;28;20580;-74
2022/05/18 11:01:18;;;;;;;6.57;2.17;;;;;;;-143.84;77.79;45111.91;5101215;28;20456;-74
2022/05/18 11:03:52;;;;;;;7.60;2.20;;;;;;;-143.84;76.48;45111.91;5097574;28;20477;-74
2022/05/18 11:06:22;;;;;;;2.27;2.07;;;;;;;-143.84;76.72;45096.66;5099632;28;20482;-74
2022/05/18 11:08:51;;;;;;;3.43;2.20;;;;;;;-143.84;77.26;45130.94;5104510;28;20470;-74
2022/05/18 11:11:34;;;;;;;14.57;2.80;;;;;;;-143.84;75.85;45092.88;5099609;28;20447;-74
2022/05/18 11:14:14;;;;;;;3.60;2.63;;;;;;;-143.84;72.62;45098.56;5108069;28;20451;-74
2022/05/18 11:16:49;;;;;;;12.70;2.70;;;;;;;-143.84;73.88;45094.78;5100146;28;20463;-74
2022/05/18 11:19:30;;;;;;;13.73;2.43;;;;;;;-143.84;72.96;45115.72;5095101;28;20450;-74
2022/05/18 11:22:10;;;;;;;4.37;2.03;;;;;;;-143.84;70.41;45100.47;5105776;28;20447;-74
2022/05/18 11:24:45;;;;;;;16.20;2.80;;;;;;;-143.84;71.05;45132.84;5103339;28;20454;-74
2022/05/18 11:27:26;;;;;;;3.00;2.20;;;;;;;-143.84;71.46;45090.97;5107824;28;20994;-74
2022/05/18 11:30:02;;;;;;;3.67;2.20;;;;;;;-143.84;70.88;45100.47;5101162;28;20495;-74
2022/05/18 11:32:39;;;;;;;14.23;2.70;;;;;;;-143.84;69.46;45096.66;5098860;28;20443;-74
2022/05/18 11:35:29;;;;;;;5.93;1.80;;;;;;;-143.84;69.74;45110.00;5102150;28;20460;-74
2022/05/18 11:38:33;;;;;;;8.37;1.83;;;;;;;-143.84;69.48;45110.00;5093523;28;20448;-75
2022/05/18 11:41:19;;;;;;;3.73;2.40;;;;;;;-143.84;69.36;45081.44;5103799;28;20978;-74
2022/05/18 11:43:58;;;;;;;8.63;2.00;;;;;;;-143.84;69.65;45090.97;5104419;28;20447;-75